Beryl Junction, Utah
Current Conditions -  °F | °C
As of 4:53 PM on Friday 21 Nov 2014 (Local Time) from KCDC Reporting Station
Clear Clear  
Wind Chill: 11°   Ceiling: Unl
Heat Index: 11°   Visibility: 10mi
Dew Point: -4°   Wind: 0mph
Humidity: 35%   Direction: NA
Pressure: 30"   Gusts: NA
Location:  38.0286°N, 113.572°W
Report Text: KCDC 212353Z AUTO 00000KT 10SM CLR 11/M04 A3000 RMK AO2 SLP147 T01061044 10122 20072 53002
Loading
Personal Weather Stations






























Interactive Weather Map New forecast layout! Learn more

10-Day Weather Forecast

Advertisements
Track Severe Weather on mobile